Friday, March 6, 2015, 8:37 PM EST

KGED, Georgetown Sussex Co Airport

Location: Georgetown, DE, United States Lat: 38.683
Local Time: 8:37 PM EST ( 1:37 GMT) Lon: -75.367
Time Zone: US/Eastern Elev: 52 ft

Show me the last for .
Show Decoded

2015-03-06 19:54 METAR KGED 070054Z AUTO 00000KT 10SM CLR M09/M12 A3046 RMK AO2 SLP314 T10891122
                 =
2015-03-06 18:54 METAR KGED 062354Z AUTO 00000KT 10SM CLR M07/M12 A3047 RMK AO2 SLP318 T10721122
                 11033 21072 55008 =
2015-03-06 16:54 METAR KGED 062154Z AUTO 05005KT 10SM CLR M05/M12 A3047 RMK AO2 SLP318 T10501122
                 =
2015-03-06 15:54 METAR KGED 062054Z AUTO 04005KT 10SM CLR M04/M12 A3049 RMK AO2 SLP325 T10441117
                 56015 =
2015-03-06 14:54 METAR KGED 061954Z AUTO 03006KT 10SM CLR M04/M12 A3050 RMK AO2 SLP328 T10391122
                 =
2015-03-06 13:54 METAR KGED 061854Z AUTO 03005KT 10SM CLR M04/M12 A3051 RMK AO2 SLP332 T10391117
                 =
2015-03-06 12:54 METAR KGED 061754Z AUTO 36006KT 10SM CLR M05/M12 A3054 RMK AO2 SLP341 60000
                 T10501117 11050 21106 58014 =
2015-03-06 11:54 METAR KGED 061654Z AUTO 01006KT 10SM CLR M06/M12 A3056 RMK AO2 UPE1557 SLP349
                 P0000 T10561122 $ =
2015-03-06 10:54 METAR KGED 061554Z AUTO 02008KT 10SM UP CLR M06/M13 A3056 RMK AO2 SLP350 P0000
                 T10611128 $ =
2015-03-06 09:54 METAR KGED 061454Z AUTO 03011KT 10SM UP CLR M07/M14 A3058 RMK AO2 UPB18E19B50
                 SLP355 P0000 60000 T10721139 51015 $ =
2015-03-06 08:54 METAR KGED 061354Z AUTO 02011G20KT 10SM CLR M08/M14 A3057 RMK AO2 UPB17E26
                 SLP350 P0000 T10781144 $ =
2015-03-06 07:54 METAR KGED 061254Z AUTO 36006KT 10SM CLR M09/M15 A3055 RMK AO2 SLP346 T10941150
                 $ =
2015-03-06 06:54 METAR KGED 061154Z AUTO 36005KT 10SM CLR M11/M15 A3053 RMK AO2 SLP339 60000
                 70046 T11061150 11061 21106 51025 $ =
2015-03-06 05:54 METAR KGED 061054Z AUTO 36008KT 10SM CLR M09/M16 A3052 RMK AO2 UPE12B30E52
                 SLP335 P0000 T10941156 $ =
2015-03-06 04:54 METAR KGED 060954Z AUTO 35003KT 10SM UP CLR M09/M14 A3049 RMK AO2 SLP324 P0000
                 T10941139 $ =
2015-03-06 03:54 METAR KGED 060854Z AUTO 36007KT 10SM UP CLR M08/M14 A3046 RMK AO2 UPB0755SNE0755
                 SLP314 P0000 60000 T10831139 53016 $ =
2015-03-06 02:54 METAR KGED 060754Z AUTO 35005KT 9SM -SN CLR M08/M13 A3044 RMK AO2 SLP307 P0000
                 T10781128 $ =
2015-03-06 00:54 METAR KGED 060554Z AUTO 35007KT 9SM -SN SCT110 M06/M12 A3041 RMK AO2 SNB37
                 SLP298 P0000 60000 T10611117 11050 21061 51014 $ =
2015-03-05 23:54 METAR KGED 060454Z AUTO 34007KT 10SM OVC100 M06/M11 A3040 RMK AO2 SLP294
                 T10561111 400611056 PWINO FZRANO $ =
2015-03-05 22:54 METAR KGED 060354Z AUTO 36006KT 10SM OVC100 M06/M10 A3038 RMK AO2 SLP289
                 T10561100 PWINO FZRANO $ =
2015-03-05 21:54 METAR KGED 060254Z AUTO 35008KT 10SM FEW055 OVC090 M06/M10 A3037 RMK AO2 SLP283
                 T10561100 51033 PWINO FZRANO $ =

Support USWX by starting your Amazon purchase here.